Time;durP1;ratioP1;P1;durP2;ratioP2;P2;SDS_P1;SDS_P2;PMS_P1;PMS_P2;Temp;Humidity;BMP_temperature;BMP_pressure;BME280_temperature;BME280_humidity;BME280_pressure;Samples;Min_cycle;Max_cycle;Signal;HPM_P1;HPM_P2
2022/05/09 00:00:56;;;;;;;13.07;12.07;;;13.30;99.90;;;;;;4849821;29;20454;-68
2022/05/09 00:04:23;;;;;;;12.20;11.20;;;13.10;99.90;;;;;;4904637;28;20503;-68
2022/05/09 00:07:34;;;;;;;18.53;16.70;;;13.00;99.90;;;;;;4935490;28;20438;-68
2022/05/09 00:10:44;;;;;;;14.10;12.70;;;12.90;99.90;;;;;;4934963;28;20466;-67
2022/05/09 00:14:09;;;;;;;11.70;10.73;;;13.00;99.90;;;;;;4934494;28;20429;-67
2022/05/09 00:27:27;;;;;;;14.73;11.67;;;13.00;99.90;;;;;;4928178;28;20472;-69
2022/05/09 00:30:30;;;;;;;14.70;13.30;;;12.90;99.90;;;;;;4914297;28;20465;-68
2022/05/09 00:33:54;;;;;;;12.47;11.37;;;12.90;99.90;;;;;;4912450;29;20984;-67
2022/05/09 00:51:11;;;;;;;11.60;10.60;;;12.90;99.90;;;;;;4872364;29;20503;-67
2022/05/09 00:54:24;;;;;;;11.87;10.77;;;12.80;99.90;;;;;;4818545;29;20451;-67
2022/05/09 00:57:39;;;;;;;12.67;11.57;;;12.80;99.90;;;;;;4796045;29;20541;-67
2022/05/09 01:01:03;;;;;;;13.43;12.20;;;12.80;99.90;;;;;;4805079;29;20433;-69
2022/05/09 01:04:17;;;;;;;12.57;11.47;;;12.70;99.90;;;;;;4793326;29;20444;-68
2022/05/09 01:07:21;;;;;;;14.10;12.70;;;11.80;99.90;;;;;;4795269;29;20443;-69
2022/05/09 01:10:37;;;;;;;14.70;13.30;;;12.70;99.90;;;;;;4833599;29;20435;-69
2022/05/09 01:13:19;;;;;;;14.30;13.00;;;12.60;99.90;;;;;;4958400;28;20444;-70
2022/05/09 01:15:49;;;;;;;13.87;12.60;;;12.60;99.90;;;;;;4957306;28;20460;-68
2022/05/09 01:18:54;;;;;;;14.47;13.00;;;12.50;99.90;;;;;;4976676;28;20537;-67
2022/05/09 01:21:36;;;;;;;13.13;11.97;;;12.50;99.90;;;;;;4977088;28;20465;-69
2022/05/09 01:24:54;;;;;;;14.23;12.30;;;12.50;99.90;;;;;;4972075;28;20455;-67
2022/05/09 01:28:14;;;;;;;12.20;11.10;;;12.30;99.90;;;;;;4976434;28;20475;-68
2022/05/09 01:31:15;;;;;;;14.53;13.20;;;12.30;99.90;;;;;;4959662;28;20487;-69
2022/05/09 01:34:09;;;;;;;14.10;12.67;;;12.30;99.90;;;;;;4936373;28;20436;-68
2022/05/09 01:36:56;;;;;;;13.20;12.00;;;12.40;99.90;;;;;;4972684;28;20436;-70
2022/05/09 01:39:41;;;;;;;13.67;12.53;;;12.30;99.90;;;;;;4944319;28;20465;-68
2022/05/09 01:43:03;;;;;;;13.90;12.77;;;12.30;99.90;;;;;;4943016;28;20483;-67
2022/05/09 01:46:34;;;;;;;13.40;12.30;;;12.30;99.90;;;;;;4942690;28;20452;-67
2022/05/09 01:51:53;;;;;;;13.83;12.53;;;12.80;99.90;;;;;;4959410;28;20578;-68
2022/05/09 01:54:19;;;;;;;14.97;13.17;;;12.40;99.90;;;;;;4967412;28;20460;-69
2022/05/09 01:56:44;;;;;;;14.70;13.27;;;12.60;99.90;;;;;;4949861;29;20177;-67
2022/05/09 01:59:12;;;;;;;15.90;14.57;;;11.20;99.90;;;;;;4966507;28;20292;-70
2022/05/09 02:01:42;;;;;;;14.57;13.30;;;11.00;99.90;;;;;;4968260;28;20283;-70
2022/05/09 02:04:08;;;;;;;15.97;14.57;;;10.90;99.90;;;;;;4956219;28;20424;-68
2022/05/09 02:06:35;;;;;;;15.70;14.40;;;10.70;99.90;;;;;;4943350;29;20472;-68
2022/05/09 02:09:01;;;;;;;15.93;14.63;;;10.60;99.90;;;;;;4960159;28;20491;-70
2022/05/09 02:11:29;;;;;;;14.33;13.07;;;12.00;99.90;;;;;;4975091;28;20483;-69
2022/05/09 02:13:55;;;;;;;15.40;14.00;;;12.90;99.90;;;;;;4959172;29;20464;-68
2022/05/09 02:16:22;;;;;;;14.60;13.20;;;11.60;99.90;;;;;;4960819;28;20460;-70
2022/05/09 02:18:58;;;;;;;15.40;14.00;;;11.90;99.90;;;;;;4960864;28;20484;-70
2022/05/09 02:21:25;;;;;;;14.03;12.80;;;11.80;99.90;;;;;;4960027;28;20458;-68
2022/05/09 02:23:53;;;;;;;14.27;12.90;;;11.90;99.90;;;;;;4940356;29;20455;-70
2022/05/09 02:26:19;;;;;;;14.70;13.47;;;11.40;99.90;;;;;;4961088;28;21049;-67
2022/05/09 02:28:48;;;;;;;15.67;14.27;;;11.60;99.90;;;;;;4956872;29;20540;-69
2022/05/09 02:31:20;;;;;;;14.67;13.23;;;11.80;99.90;;;;;;4976681;28;20215;-70
2022/05/09 02:33:46;;;;;;;15.33;14.00;;;11.80;99.90;;;;;;4944140;29;20479;-68
2022/05/09 02:36:13;;;;;;;14.17;12.97;;;12.90;99.90;;;;;;4959565;28;20440;-68
2022/05/09 02:38:39;;;;;;;15.53;14.17;;;12.70;99.90;;;;;;4965064;29;20468;-68
2022/05/09 02:41:06;;;;;;;14.73;13.33;;;12.80;99.90;;;;;;4978313;28;20447;-69
2022/05/09 02:43:39;;;;;;;14.70;13.40;;;11.80;99.90;;;;;;4978508;28;20644;-69
2022/05/09 02:46:05;;;;;;;15.33;13.90;;;11.70;99.90;;;;;;4958650;28;20468;-68
2022/05/09 02:48:38;;;;;;;15.40;13.87;;;12.70;99.90;;;;;;4958103;28;20494;-69
2022/05/09 02:51:06;;;;;;;16.23;14.83;;;12.80;99.90;;;;;;4960011;29;20440;-69
2022/05/09 02:53:35;;;;;;;16.20;14.80;;;11.60;99.90;;;;;;4947923;28;20448;-69
2022/05/09 02:56:01;;;;;;;16.90;15.10;;;11.60;99.90;;;;;;4941546;29;20508;-68
2022/05/09 02:58:27;;;;;;;15.30;13.90;;;11.90;99.90;;;;;;4924331;28;20984;-69
2022/05/09 03:00:52;;;;;;;16.77;15.20;;;11.50;99.90;;;;;;4955555;28;20727;-69
2022/05/09 03:06:02;;;;;;;14.80;13.50;;;11.50;99.90;;;;;;4954192;28;20272;-69
2022/05/09 03:08:29;;;;;;;15.47;14.17;;;11.50;99.90;;;;;;4955745;28;20531;-69
2022/05/09 03:10:55;;;;;;;16.00;14.50;;;11.50;99.90;;;;;;4953859;28;20205;-69
2022/05/09 03:13:21;;;;;;;16.50;15.00;;;11.40;99.90;;;;;;4954437;28;20444;-69
2022/05/09 03:15:48;;;;;;;16.87;14.80;;;11.40;99.90;;;;;;4954132;28;20546;-69
2022/05/09 03:18:16;;;;;;;15.23;14.00;;;11.30;99.90;;;;;;4954245;28;20252;-69
2022/05/09 03:20:41;;;;;;;16.53;13.87;;;11.30;99.90;;;;;;4954019;28;20535;-69
2022/05/09 03:23:08;;;;;;;16.70;15.20;;;11.20;99.90;;;;;;4942691;29;20519;-69
2022/05/09 03:25:36;;;;;;;17.40;14.30;;;11.30;99.90;;;;;;4952206;28;20683;-69
2022/05/09 03:28:03;;;;;;;17.37;15.87;;;11.20;99.90;;;;;;4954162;28;20468;-69
2022/05/09 03:30:29;;;;;;;16.20;14.70;;;11.20;99.90;;;;;;4955250;28;20873;-69
2022/05/09 03:32:55;;;;;;;15.80;14.30;;;11.30;99.90;;;;;;4954307;28;20967;-69
2022/05/09 03:35:22;;;;;;;15.27;13.87;;;11.20;99.90;;;;;;4954719;28;20452;-69
2022/05/09 03:37:47;;;;;;;15.93;14.47;;;11.20;99.90;;;;;;4954819;28;20807;-69
2022/05/09 03:40:13;;;;;;;16.90;15.10;;;11.20;99.90;;;;;;4953971;28;20193;-68
2022/05/09 03:42:39;;;;;;;15.50;14.07;;;11.20;99.90;;;;;;4952174;28;20185;-69
2022/05/09 03:45:06;;;;;;;16.20;14.70;;;11.20;99.90;;;;;;4955656;28;20468;-68
2022/05/09 03:47:31;;;;;;;15.77;14.27;;;11.20;99.90;;;;;;4953084;28;20204;-69
2022/05/09 03:49:57;;;;;;;16.40;14.70;;;11.20;99.90;;;;;;4952793;28;20871;-69
2022/05/09 03:52:24;;;;;;;15.60;14.30;;;11.10;99.90;;;;;;4954511;28;20655;-69
2022/05/09 03:54:49;;;;;;;18.33;16.53;;;11.10;99.90;;;;;;4953739;28;20647;-69
2022/05/09 03:57:15;;;;;;;15.93;14.37;;;11.00;99.90;;;;;;4953198;28;20460;-69
2022/05/09 03:59:41;;;;;;;15.93;14.53;;;11.00;99.90;;;;;;4952171;28;20288;-69
2022/05/09 04:02:07;;;;;;;15.77;14.27;;;11.00;99.90;;;;;;4955361;28;20553;-69
2022/05/09 04:04:32;;;;;;;16.60;15.10;;;11.00;99.90;;;;;;4954478;28;20189;-69
2022/05/09 04:06:58;;;;;;;17.20;15.70;;;11.10;99.90;;;;;;4952542;28;20196;-69
2022/05/09 04:09:23;;;;;;;16.33;14.80;;;11.10;99.90;;;;;;4954834;28;20209;-69
2022/05/09 04:11:50;;;;;;;15.70;14.30;;;11.20;99.90;;;;;;4951657;28;20695;-69
2022/05/09 04:16:49;;;;;;;15.00;13.70;;;11.30;99.90;;;;;;4953442;28;20215;-69
2022/05/09 04:17:03;;;;;;;15.20;13.70;;;11.40;99.90;;;;;;4951879;28;20974;-69
2022/05/09 04:19:29;;;;;;;14.57;13.27;;;11.50;99.90;;;;;;4953705;28;20468;-69
2022/05/09 04:21:54;;;;;;;14.97;13.57;;;11.60;99.90;;;;;;4954093;28;20447;-69
2022/05/09 04:24:20;;;;;;;14.87;13.57;;;11.60;99.90;;;;;;4952250;28;20467;-69
2022/05/09 04:26:45;;;;;;;15.20;13.90;;;11.60;99.90;;;;;;4952582;28;20192;-69
2022/05/09 04:29:11;;;;;;;17.07;15.40;;;11.60;99.90;;;;;;4952210;28;20208;-69
2022/05/09 04:31:36;;;;;;;15.10;13.77;;;11.70;99.90;;;;;;4953960;28;20209;-69
2022/05/09 04:34:02;;;;;;;15.80;14.40;;;11.80;99.90;;;;;;4952675;28;20220;-69
2022/05/09 04:36:29;;;;;;;14.93;13.63;;;11.80;99.90;;;;;;4954784;28;20237;-68
2022/05/09 04:38:55;;;;;;;16.13;14.83;;;11.80;99.90;;;;;;4952940;28;20196;-69
2022/05/09 04:41:22;;;;;;;14.87;13.57;;;11.90;99.90;;;;;;4953150;28;20825;-69
2022/05/09 04:43:48;;;;;;;16.83;15.37;;;11.90;99.90;;;;;;4953881;28;20436;-69
2022/05/09 04:46:14;;;;;;;16.33;14.63;;;12.00;99.90;;;;;;4953937;28;20515;-68
2022/05/09 04:48:42;;;;;;;17.67;15.97;;;12.10;99.90;;;;;;4956684;28;20515;-69
2022/05/09 04:51:08;;;;;;;16.77;14.97;;;12.10;99.90;;;;;;4937740;29;20468;-69
2022/05/09 04:53:33;;;;;;;16.20;14.70;;;12.30;99.90;;;;;;4953939;28;20449;-69
2022/05/09 04:56:00;;;;;;;14.17;12.87;;;12.50;99.90;;;;;;4956380;28;20492;-69
2022/05/09 04:58:26;;;;;;;15.40;14.00;;;12.60;99.90;;;;;;4951986;28;20609;-69
2022/05/09 05:00:52;;;;;;;15.90;14.40;;;12.60;99.90;;;;;;4952121;28;20582;-69
2022/05/09 05:03:18;;;;;;;15.80;14.50;;;12.70;99.90;;;;;;4953972;28;20953;-70
2022/05/09 05:05:44;;;;;;;15.63;14.10;;;12.80;99.90;;;;;;4954096;28;20583;-69
2022/05/09 05:08:13;;;;;;;14.80;13.50;;;12.90;99.90;;;;;;4956236;28;20994;-69
2022/05/09 05:10:38;;;;;;;17.77;16.07;;;13.00;99.90;;;;;;4952732;28;20232;-69
2022/05/09 05:13:04;;;;;;;16.13;14.80;;;13.20;99.90;;;;;;4952863;28;20472;-69
2022/05/09 05:15:31;;;;;;;16.50;14.83;;;13.30;99.90;;;;;;4952060;28;20787;-69
2022/05/09 05:17:57;;;;;;;16.17;14.87;;;13.40;99.90;;;;;;4953993;28;20207;-69
2022/05/09 05:20:23;;;;;;;17.60;16.03;;;13.60;99.90;;;;;;4951271;28;20444;-69
2022/05/09 05:22:49;;;;;;;15.83;14.50;;;13.70;99.90;;;;;;4953051;28;20639;-69
2022/05/09 05:25:26;;;;;;;15.40;13.90;;;13.90;99.90;;;;;;4950303;28;20468;-69
2022/05/09 05:27:52;;;;;;;17.13;15.60;;;14.00;99.90;;;;;;4950788;28;20474;-70
2022/05/09 05:30:18;;;;;;;15.80;14.50;;;14.10;99.90;;;;;;4951111;28;20499;-69
2022/05/09 05:32:45;;;;;;;17.07;15.67;;;14.30;99.90;;;;;;4952732;28;20464;-69
2022/05/09 05:35:14;;;;;;;16.67;15.20;;;14.40;99.90;;;;;;4950471;28;21001;-69
2022/05/09 05:37:40;;;;;;;16.60;15.10;;;14.70;99.90;;;;;;4951392;28;20860;-69
2022/05/09 05:40:07;;;;;;;15.90;14.50;;;14.80;99.90;;;;;;4953302;28;20943;-68
2022/05/09 05:42:33;;;;;;;17.70;16.10;;;15.00;99.90;;;;;;4953281;28;20444;-69
2022/05/09 05:44:59;;;;;;;16.23;14.70;;;15.30;99.90;;;;;;4950698;28;20488;-69
2022/05/09 05:47:25;;;;;;;16.90;15.60;;;15.40;99.90;;;;;;4951907;28;20492;-69
2022/05/09 05:49:51;;;;;;;15.17;13.97;;;15.60;99.90;;;;;;4952176;28;20216;-69
2022/05/09 05:52:17;;;;;;;16.67;15.37;;;15.80;99.90;;;;;;4951569;28;20998;-69
2022/05/09 05:54:45;;;;;;;14.40;13.20;;;15.80;99.90;;;;;;4952503;28;20820;-69
2022/05/09 05:57:25;;;;;;;16.00;14.37;;;16.00;99.90;;;;;;4951007;28;20433;-69
2022/05/09 05:59:59;;;;;;;15.17;13.97;;;16.10;99.90;;;;;;4951938;28;20439;-69
2022/05/09 06:02:26;;;;;;;15.47;14.27;;;16.20;99.90;;;;;;4949923;28;20440;-69
2022/05/09 06:04:52;;;;;;;16.50;15.10;;;16.20;99.90;;;;;;4952263;28;20432;-68
2022/05/09 06:07:19;;;;;;;17.17;15.63;;;16.20;99.90;;;;;;4954888;28;20580;-68
2022/05/09 06:09:46;;;;;;;15.43;14.13;;;16.30;99.90;;;;;;4953656;28;20678;-68
2022/05/09 06:12:14;;;;;;;15.90;14.40;;;16.40;99.90;;;;;;4956065;28;20472;-68
2022/05/09 06:14:40;;;;;;;15.80;14.40;;;16.50;99.90;;;;;;4957357;28;20438;-67
2022/05/09 06:17:07;;;;;;;15.80;13.27;;;16.50;99.90;;;;;;4953171;28;20525;-68
2022/05/09 06:19:32;;;;;;;15.80;14.20;;;16.60;99.90;;;;;;4952220;28;20208;-67
2022/05/09 06:21:59;;;;;;;15.30;14.00;;;16.80;99.90;;;;;;4952533;28;20471;-67
2022/05/09 06:24:25;;;;;;;15.80;14.50;;;16.90;99.90;;;;;;4952252;28;20738;-67
2022/05/09 06:26:50;;;;;;;15.07;13.80;;;16.80;99.90;;;;;;4952604;28;20539;-67
2022/05/09 06:29:17;;;;;;;15.30;14.10;;;16.90;99.90;;;;;;4923642;28;22014;-68
2022/05/09 06:31:42;;;;;;;14.00;12.80;;;17.00;99.90;;;;;;4916493;28;20259;-68
2022/05/09 06:34:11;;;;;;;13.83;12.63;;;17.10;99.90;;;;;;4947560;28;20437;-68
2022/05/09 06:36:38;;;;;;;16.13;14.27;;;17.30;99.90;;;;;;4948028;28;20181;-71
2022/05/09 06:39:06;;;;;;;16.60;15.20;;;17.40;99.90;;;;;;4943411;28;20470;-68
2022/05/09 06:41:32;;;;;;;15.77;14.37;;;17.50;99.90;;;;;;4948133;28;20495;-68
2022/05/09 06:43:58;;;;;;;30.70;27.63;;;17.50;99.90;;;;;;4949953;28;20965;-68
2022/05/09 06:46:23;;;;;;;16.70;15.40;;;17.50;99.90;;;;;;4952314;28;20472;-68
2022/05/09 06:48:49;;;;;;;15.90;14.40;;;17.70;99.90;;;;;;4945593;28;20232;-68
2022/05/09 06:51:15;;;;;;;15.40;14.13;;;17.90;99.90;;;;;;4948382;28;20288;-68
2022/05/09 06:53:41;;;;;;;15.40;14.17;;;18.10;99.90;;;;;;4947510;28;20766;-69
2022/05/09 06:56:08;;;;;;;15.30;14.10;;;18.30;99.90;;;;;;4947711;28;20232;-69
2022/05/09 06:58:33;;;;;;;15.23;13.63;;;18.50;99.90;;;;;;4945605;28;20452;-68
2022/05/09 07:00:59;;;;;;;15.50;14.30;;;18.70;99.90;;;;;;4949936;28;20585;-68
2022/05/09 07:03:25;;;;;;;15.03;13.53;;;18.70;99.90;;;;;;4948769;28;20208;-69
2022/05/09 07:05:51;;;;;;;15.40;13.90;;;18.80;99.90;;;;;;4948119;28;20181;-68
2022/05/09 07:08:19;;;;;;;15.40;13.90;;;19.00;99.90;;;;;;4948731;28;20464;-68
2022/05/09 07:10:45;;;;;;;13.67;12.63;;;19.10;99.90;;;;;;4950307;28;20507;-68
2022/05/09 07:13:11;;;;;;;14.70;13.30;;;19.40;99.90;;;;;;4954950;28;20468;-69
2022/05/09 07:15:37;;;;;;;14.27;13.13;;;19.40;99.90;;;;;;4953162;28;20506;-69
2022/05/09 07:18:03;;;;;;;14.27;13.17;;;19.50;99.90;;;;;;4955738;28;20754;-69
2022/05/09 07:20:31;;;;;;;13.70;12.50;;;19.70;99.90;;;;;;4950227;28;20189;-69
2022/05/09 07:23:04;;;;;;;13.87;12.57;;;19.90;99.90;;;;;;4953076;28;20436;-69
2022/05/09 07:25:30;;;;;;;14.83;13.43;;;20.10;99.90;;;;;;4953895;28;20427;-69
2022/05/09 07:27:55;;;;;;;14.70;13.57;;;20.10;99.90;;;;;;4954462;28;20440;-69
2022/05/09 07:30:23;;;;;;;14.90;13.60;;;20.30;99.90;;;;;;4949942;28;20219;-69
2022/05/09 07:32:51;;;;;;;13.13;12.03;;;20.50;99.90;;;;;;4953915;28;20200;-69
2022/05/09 07:35:17;;;;;;;13.07;11.70;;;20.60;99.90;;;;;;4954042;29;20516;-69
2022/05/09 07:37:44;;;;;;;12.97;11.77;;;20.40;99.90;;;;;;4954206;28;20974;-69
2022/05/09 07:40:11;;;;;;;13.20;12.20;;;20.40;99.90;;;;;;4950417;28;20425;-69
2022/05/09 07:42:37;;;;;;;14.33;13.23;;;20.20;99.90;;;;;;4953986;28;20452;-69
2022/05/09 07:45:04;;;;;;;13.10;11.90;;;20.50;99.90;;;;;;4953337;28;20462;-68
2022/05/09 07:47:30;;;;;;;13.40;12.30;;;20.50;99.90;;;;;;4952082;28;20876;-69
2022/05/09 07:49:56;;;;;;;14.20;12.60;;;20.50;99.90;;;;;;4948710;28;20534;-69
2022/05/09 07:52:22;;;;;;;12.47;11.47;;;20.80;99.90;;;;;;4949346;28;20491;-69
2022/05/09 07:54:48;;;;;;;13.17;12.03;;;21.00;99.90;;;;;;4953437;28;20236;-69
2022/05/09 07:57:14;;;;;;;14.20;12.77;;;21.10;99.90;;;;;;4952796;28;20444;-69
2022/05/09 07:59:40;;;;;;;12.90;11.80;;;21.40;99.90;;;;;;4947039;28;20459;-69
2022/05/09 08:02:06;;;;;;;13.30;12.00;;;21.70;99.90;;;;;;4950801;28;20973;-69
2022/05/09 08:04:32;;;;;;;13.13;11.97;;;21.80;99.90;;;;;;4952191;28;20195;-69
2022/05/09 08:06:57;;;;;;;12.60;11.60;;;21.70;99.90;;;;;;4953987;28;20440;-69
2022/05/09 08:09:23;;;;;;;11.60;10.40;;;21.50;99.90;;;;;;4936320;28;20682;-69
2022/05/09 08:11:48;;;;;;;12.47;11.40;;;21.70;99.90;;;;;;4952839;28;20750;-69
2022/05/09 08:14:14;;;;;;;13.57;12.30;;;21.70;99.90;;;;;;4951712;28;20658;-69
2022/05/09 08:16:40;;;;;;;11.50;10.60;;;21.80;99.90;;;;;;4952119;28;20618;-69
2022/05/09 08:19:05;;;;;;;13.30;12.17;;;21.90;99.90;;;;;;4948704;28;20205;-69
2022/05/09 08:21:33;;;;;;;11.70;10.67;;;22.00;99.90;;;;;;4952093;28;20201;-69
2022/05/09 08:24:00;;;;;;;11.20;10.27;;;22.10;99.90;;;;;;4950105;28;20216;-69
2022/05/09 08:26:25;;;;;;;12.77;11.67;;;22.40;99.90;;;;;;4951570;28;20495;-69
2022/05/09 08:28:56;;;;;;;12.17;10.87;;;22.50;99.90;;;;;;4945133;28;20492;-69
2022/05/09 08:31:22;;;;;;;12.57;11.37;;;22.70;99.90;;;;;;4951963;28;20518;-69
2022/05/09 08:33:50;;;;;;;11.00;10.10;;;23.00;99.90;;;;;;4952158;28;20449;-69
2022/05/09 08:39:01;;;;;;;12.20;11.10;;;23.40;99.90;;;;;;4947461;28;20458;-69
2022/05/09 08:41:34;;;;;;;11.73;10.90;;;23.10;99.90;;;;;;4950836;28;20980;-69
2022/05/09 08:43:59;;;;;;;11.07;10.20;;;23.00;99.90;;;;;;4951053;28;20437;-69
2022/05/09 08:46:59;;;;;;;13.67;12.60;;;23.30;99.90;;;;;;4951422;28;20444;-69
2022/05/09 08:49:45;;;;;;;11.87;10.83;;;23.40;99.90;;;;;;4909421;28;20236;-69
2022/05/09 08:52:26;;;;;;;11.80;9.27;;;23.70;99.70;;;;;;4952048;28;20468;-70
2022/05/09 08:54:54;;;;;;;11.60;10.50;;;23.80;97.90;;;;;;4952788;28;20524;-69
2022/05/09 08:57:28;;;;;;;12.43;11.23;;;23.70;98.40;;;;;;4951451;28;20436;-71
2022/05/09 09:00:18;;;;;;;12.20;11.00;;;23.10;99.70;;;;;;4947891;28;20440;-71
2022/05/09 09:03:29;;;;;;;10.23;9.43;;;23.40;99.90;;;;;;4938784;28;20477;-71
2022/05/09 09:05:57;;;;;;;9.83;9.03;;;23.40;98.20;;;;;;4936152;28;20447;-71
2022/05/09 09:08:51;;;;;;;10.40;9.57;;;23.20;99.40;;;;;;4950426;28;20464;-71
2022/05/09 09:11:29;;;;;;;10.73;9.83;;;23.70;98.90;;;;;;4949603;28;20916;-71
2022/05/09 09:14:09;;;;;;;11.13;9.07;;;24.10;98.40;;;;;;4950294;28;20428;-71
2022/05/09 09:17:02;;;;;;;11.57;10.50;;;24.40;97.90;;;;;;4947347;28;20832;-71
2022/05/09 09:19:56;;;;;;;10.10;9.30;;;24.80;97.00;;;;;;4946261;28;20815;-71
2022/05/09 09:22:35;;;;;;;9.50;8.70;;;24.70;94.90;;;;;;4950764;28;20501;-71
2022/05/09 09:25:34;;;;;;;9.20;8.13;;;24.50;95.30;;;;;;4949978;28;20440;-71
2022/05/09 09:28:10;;;;;;;9.13;8.23;;;24.70;95.50;;;;;;4950659;28;20982;-71
2022/05/09 09:30:38;;;;;;;9.13;8.53;;;24.50;94.10;;;;;;4947351;28;20470;-71
2022/05/09 09:33:06;;;;;;;10.90;10.10;;;25.00;94.00;;;;;;4949673;28;20467;-71
2022/05/09 09:35:50;;;;;;;10.90;9.90;;;24.90;93.90;;;;;;4951580;28;20939;-71
2022/05/09 09:38:37;;;;;;;10.00;9.10;;;24.90;93.40;;;;;;4951200;28;20557;-71
2022/05/09 09:41:20;;;;;;;9.70;8.90;;;25.60;92.30;;;;;;4951924;28;20950;-71
2022/05/09 09:43:48;;;;;;;9.87;8.23;;;25.50;91.30;;;;;;4949095;28;20444;-71
2022/05/09 09:46:14;;;;;;;10.30;9.33;;;25.10;91.80;;;;;;4944240;28;20445;-71
2022/05/09 09:48:39;;;;;;;9.87;9.17;;;24.60;92.30;;;;;;4946688;28;20559;-71
2022/05/09 09:51:07;;;;;;;9.80;9.10;;;24.50;92.40;;;;;;4939491;29;20492;-71
2022/05/09 09:53:40;;;;;;;9.73;8.97;;;24.40;92.80;;;;;;4951925;28;20184;-71
2022/05/09 09:56:20;;;;;;;9.70;9.00;;;24.20;92.90;;;;;;4953010;28;20443;-71
2022/05/09 09:58:48;;;;;;;13.63;12.23;;;23.90;93.30;;;;;;4948683;28;20516;-71
2022/05/09 10:01:22;;;;;;;10.07;9.37;;;23.90;93.20;;;;;;4948765;28;20446;-71
2022/05/09 10:04:06;;;;;;;10.70;9.67;;;23.80;93.30;;;;;;4951544;28;20519;-72
2022/05/09 10:06:33;;;;;;;10.87;8.33;;;25.00;92.00;;;;;;4950989;28;20428;-72
2022/05/09 10:09:04;;;;;;;10.97;10.03;;;26.50;91.00;;;;;;4946508;28;20474;-72
2022/05/09 10:11:31;;;;;;;10.20;9.23;;;27.30;87.10;;;;;;4951008;28;20491;-69
2022/05/09 10:14:02;;;;;;;10.10;9.10;;;27.30;84.50;;;;;;4953215;29;20492;-71
2022/05/09 10:16:45;;;;;;;9.80;9.10;;;27.60;86.30;;;;;;4953265;28;20432;-69
2022/05/09 10:19:27;;;;;;;8.87;8.27;;;28.30;82.70;;;;;;4949884;28;20451;-69
2022/05/09 10:24:49;;;;;;;8.97;8.37;;;30.70;72.10;;;;;;4962900;28;20403;-70
2022/05/09 10:27:27;;;;;;;9.10;8.40;;;30.90;67.10;;;;;;4961862;28;20472;-69
2022/05/09 10:29:56;;;;;;;7.90;7.30;;;31.30;64.50;;;;;;4953893;28;20424;-69
2022/05/09 10:32:49;;;;;;;9.20;8.57;;;30.80;63.50;;;;;;4953572;29;20511;-69
2022/05/09 10:35:36;;;;;;;8.27;7.43;;;29.90;66.00;;;;;;4953601;29;20416;-70
2022/05/09 10:38:06;;;;;;;9.97;9.27;;;30.60;66.20;;;;;;4953535;28;20428;-69
2022/05/09 10:40:41;;;;;;;9.43;8.90;;;30.90;64.00;;;;;;4949840;29;20510;-69
2022/05/09 10:43:30;;;;;;;8.97;8.37;;;31.40;61.00;;;;;;4953698;28;20507;-70
2022/05/09 10:45:56;;;;;;;9.47;8.87;;;;;;;;;;4954443;28;20435;-69
2022/05/09 10:48:21;;;;;;;7.97;7.47;;;33.20;55.90;;;;;;4956094;28;20456;-66
2022/05/09 10:51:14;;;;;;;7.73;7.13;;;32.20;56.50;;;;;;4955016;29;20470;-66
2022/05/09 10:53:57;;;;;;;7.33;6.93;;;32.70;54.70;;;;;;4957318;28;20180;-66
2022/05/09 10:56:43;;;;;;;8.30;7.60;;;33.30;53.60;;;;;;4957368;28;20417;-67
2022/05/09 10:59:12;;;;;;;7.83;7.33;;;32.60;52.80;;;;;;4946421;28;20456;-70
2022/05/09 11:01:50;;;;;;;7.70;7.20;;;31.70;55.10;;;;;;4954065;28;21020;-69
2022/05/09 11:04:17;;;;;;;8.07;7.57;;;31.10;55.30;;;;;;4953916;29;20436;-69
2022/05/09 11:07:01;;;;;;;8.67;6.73;;;30.90;55.10;;;;;;4954690;29;20770;-69
2022/05/09 11:09:35;;;;;;;8.50;7.73;;;30.70;55.80;;;;;;4949759;28;20463;-69
2022/05/09 11:12:42;;;;;;;7.97;7.17;;;30.30;56.70;;;;;;4953593;29;20472;-72
2022/05/09 11:15:19;;;;;;;8.47;7.87;;;30.50;56.20;;;;;;4955092;28;20579;-69
2022/05/09 11:17:57;;;;;;;8.30;7.60;;;30.10;56.00;;;;;;4953068;28;20474;-68
2022/05/09 11:20:28;;;;;;;8.43;7.63;;;29.90;56.90;;;;;;4948654;28;20563;-69
2022/05/09 11:23:14;;;;;;;8.30;7.70;;;30.30;55.50;;;;;;4935529;29;20452;-68
2022/05/09 11:25:56;;;;;;;8.33;7.30;;;29.70;56.00;;;;;;4950992;28;20806;-68
2022/05/09 11:28:31;;;;;;;7.57;7.07;;;28.40;57.30;;;;;;4951139;28;20463;-70
2022/05/09 11:30:56;;;;;;;8.00;7.40;;;27.30;58.40;;;;;;4950291;28;20534;-70
2022/05/09 11:33:52;;;;;;;7.83;7.30;;;26.60;60.10;;;;;;4952454;28;20946;-70
2022/05/09 11:37:02;;;;;;;8.20;7.60;;;26.20;60.70;;;;;;4952694;28;20192;-70
2022/05/09 11:39:50;;;;;;;7.73;7.13;;;25.80;61.70;;;;;;4949256;28;20459;-71
2022/05/09 11:45:58;;;;;;;8.33;7.73;;;25.80;62.90;;;;;;4948542;28;20435;-71
2022/05/09 11:48:46;;;;;;;7.00;6.60;;;27.10;62.30;;;;;;4945543;28;20479;-70
2022/05/09 11:51:30;;;;;;;8.70;8.00;;;27.30;60.20;;;;;;4950094;28;20468;-70
2022/05/09 11:54:02;;;;;;;7.80;7.23;;;27.00;60.80;;;;;;4950899;28;20448;-70
2022/05/09 11:56:32;;;;;;;7.73;7.03;;;27.10;60.20;;;;;;4950906;28;20444;-71
2022/05/09 11:58:59;;;;;;;7.90;6.93;;;28.20;58.60;;;;;;4948726;28;20460;-71
2022/05/09 12:02:00;;;;;;;10.03;9.43;;;28.40;57.80;;;;;;4950786;28;20443;-68
2022/05/09 12:04:45;;;;;;;9.10;6.93;;;27.90;58.50;;;;;;4951463;28;20450;-71
2022/05/09 12:07:23;;;;;;;8.77;8.07;;;26.60;61.00;;;;;;4952680;28;20464;-71
2022/05/09 12:10:00;;;;;;;7.53;7.03;;;26.20;61.60;;;;;;4951365;28;20438;-71
2022/05/09 12:12:37;;;;;;;8.10;7.60;;;25.90;62.70;;;;;;4953196;28;20467;-70
2022/05/09 12:15:23;;;;;;;8.03;7.23;;;25.80;62.50;;;;;;4954792;28;20440;-70
2022/05/09 12:18:09;;;;;;;7.70;7.07;;;25.70;63.80;;;;;;4952802;28;20891;-70
2022/05/09 12:20:37;;;;;;;7.63;7.00;;;25.70;63.20;;;;;;4951651;28;20502;-71
2022/05/09 12:23:11;;;;;;;8.07;7.40;;;25.60;64.60;;;;;;4949176;28;20504;-70
2022/05/09 12:25:37;;;;;;;8.50;8.00;;;25.70;64.70;;;;;;4954575;28;20476;-71
2022/05/09 12:28:29;;;;;;;8.00;7.40;;;25.60;64.10;;;;;;4953250;28;20479;-70
2022/05/09 12:31:25;;;;;;;7.50;7.10;;;25.80;64.30;;;;;;4950353;28;20464;-70
2022/05/09 12:33:52;;;;;;;9.30;8.00;;;26.00;63.00;;;;;;4952076;28;20963;-71
2022/05/09 12:36:28;;;;;;;7.93;7.13;;;25.90;63.30;;;;;;4953115;28;20432;-71
2022/05/09 12:39:06;;;;;;;10.90;7.30;;;26.00;62.70;;;;;;4951899;28;20460;-71
2022/05/09 12:41:40;;;;;;;7.10;6.60;;;28.40;60.00;;;;;;4953103;28;20938;-69
2022/05/09 12:44:11;;;;;;;6.70;6.20;;;31.80;54.90;;;;;;4953915;28;20499;-70
2022/05/09 12:46:46;;;;;;;7.37;6.80;;;34.10;50.80;;;;;;4953737;28;20451;-69
2022/05/09 12:49:16;;;;;;;7.57;6.70;;;35.60;48.70;;;;;;4950994;28;20843;-69
2022/05/09 12:51:51;;;;;;;6.83;6.40;;;34.70;46.90;;;;;;4952626;28;20556;-69
2022/05/09 12:54:21;;;;;;;6.40;6.00;;;33.50;48.00;;;;;;4954444;28;20506;-69
2022/05/09 12:56:51;;;;;;;6.30;5.80;;;33.30;47.40;;;;;;4957262;28;20949;-69
2022/05/09 12:59:18;;;;;;;7.10;6.60;;;33.90;46.90;;;;;;4951392;28;20460;-69
2022/05/09 13:01:55;;;;;;;6.53;6.13;;;34.60;45.60;;;;;;4954372;29;20429;-69
2022/05/09 13:04:28;;;;;;;8.23;7.60;;;34.20;45.70;;;;;;4955278;28;20451;-69
2022/05/09 13:07:14;;;;;;;5.97;5.67;;;34.60;46.30;;;;;;4954560;29;20424;-69
2022/05/09 13:09:48;;;;;;;7.50;7.00;;;33.00;46.80;;;;;;4952343;28;20463;-71
2022/05/09 13:12:26;;;;;;;7.33;6.77;;;30.40;49.40;;;;;;4953721;28;20817;-71
2022/05/09 13:14:56;;;;;;;8.87;8.27;;;28.70;52.10;;;;;;4954037;28;20442;-71
2022/05/09 13:17:38;;;;;;;7.77;6.83;;;27.50;53.00;;;;;;4954217;28;20931;-71
2022/05/09 13:20:08;;;;;;;7.13;6.53;;;28.00;53.70;;;;;;4949590;28;20436;-71
2022/05/09 13:22:38;;;;;;;7.53;7.03;;;29.90;52.20;;;;;;4941067;29;20954;-72
2022/05/09 13:25:09;;;;;;;7.37;6.77;;;32.70;48.40;;;;;;4954564;28;20519;-69
2022/05/09 13:27:36;;;;;;;7.17;6.77;;;34.50;46.30;;;;;;4953126;28;20444;-69
2022/05/09 13:30:06;;;;;;;6.50;6.10;;;34.00;45.10;;;;;;4949965;28;20476;-69
2022/05/09 13:32:34;;;;;;;8.20;6.27;;;33.50;46.00;;;;;;4952434;28;20482;-68
2022/05/09 13:35:14;;;;;;;6.97;6.57;;;32.40;46.90;;;;;;4954702;28;20437;-69
2022/05/09 13:37:40;;;;;;;7.27;6.80;;;31.30;48.10;;;;;;4953473;28;20470;-68
2022/05/09 13:40:09;;;;;;;6.40;5.80;;;30.90;48.80;;;;;;4949641;28;20531;-69
2022/05/09 13:42:40;;;;;;;6.30;5.87;;;31.10;48.70;;;;;;4955629;28;20440;-69
2022/05/09 13:45:23;;;;;;;7.70;7.03;;;30.60;48.60;;;;;;4953759;28;20440;-69
2022/05/09 13:47:58;;;;;;;7.83;7.23;;;30.10;50.00;;;;;;4952909;28;20985;-68